createdAt,value
2023-05-15T00:02:03.410Z,11.85
2023-05-15T00:04:29.665Z,11.86
2023-05-15T00:06:56.037Z,11.86
2023-05-15T00:09:22.351Z,11.86
2023-05-15T00:11:48.702Z,11.87
2023-05-15T00:14:14.951Z,11.87
2023-05-15T00:16:41.309Z,11.86
2023-05-15T00:19:07.800Z,11.86
2023-05-15T00:21:34.192Z,11.86
2023-05-15T00:24:00.437Z,11.85
2023-05-15T00:26:26.692Z,11.84
2023-05-15T00:28:52.966Z,11.84
2023-05-15T00:31:20.297Z,11.84
2023-05-15T00:33:46.551Z,11.83
2023-05-15T00:36:12.941Z,11.83
2023-05-15T00:38:39.210Z,11.82
2023-05-15T00:41:09.557Z,11.80
2023-05-15T00:43:38.151Z,11.79
2023-05-15T00:46:05.903Z,11.80
2023-05-15T00:48:33.077Z,11.79
2023-05-15T00:50:59.745Z,11.79
2023-05-15T00:53:27.019Z,11.79
2023-05-15T00:55:57.001Z,11.80
2023-05-15T00:58:24.154Z,11.79
2023-05-15T01:00:50.542Z,11.78
2023-05-15T01:03:17.253Z,11.77
2023-05-15T01:05:44.156Z,11.75
2023-05-15T01:08:25.941Z,11.74
2023-05-15T01:10:52.588Z,11.74
2023-05-15T01:13:22.353Z,11.76
2023-05-15T01:15:49.234Z,11.74
2023-05-15T01:18:16.209Z,11.74
2023-05-15T01:20:45.803Z,11.74
2023-05-15T01:23:18.152Z,11.74
2023-05-15T01:25:53.957Z,11.75
2023-05-15T01:28:28.422Z,11.75
2023-05-15T01:30:55.322Z,11.75
2023-05-15T01:33:23.780Z,11.76
2023-05-15T01:35:55.186Z,11.79
2023-05-15T01:38:30.027Z,11.80
2023-05-15T01:40:59.352Z,11.81
2023-05-15T01:43:27.795Z,11.80
2023-05-15T01:45:55.406Z,11.79
2023-05-15T01:48:25.000Z,11.78
2023-05-15T01:50:54.082Z,11.79
2023-05-15T01:53:20.343Z,11.77
2023-05-15T01:55:48.082Z,11.77
2023-05-15T01:58:15.304Z,11.77
2023-05-15T02:00:42.170Z,11.78
2023-05-15T02:03:09.114Z,11.78
2023-05-15T02:05:35.500Z,11.79
2023-05-15T02:08:02.703Z,11.77
2023-05-15T02:10:29.930Z,11.76
2023-05-15T02:12:56.356Z,11.76
2023-05-15T02:15:22.617Z,11.76
2023-05-15T02:17:48.990Z,11.76
2023-05-15T02:20:15.379Z,11.76
2023-05-15T02:22:42.606Z,11.73
2023-05-15T02:25:08.979Z,11.73
2023-05-15T02:27:55.761Z,11.72
2023-05-15T02:30:21.981Z,11.70
2023-05-15T02:32:54.168Z,11.70
2023-05-15T02:35:26.822Z,11.70
2023-05-15T02:37:55.825Z,11.70
2023-05-15T02:40:23.777Z,11.70
2023-05-15T02:42:51.958Z,11.71
2023-05-15T02:45:19.196Z,11.74
2023-05-15T02:47:45.769Z,11.75
2023-05-15T02:50:12.228Z,11.77
2023-05-15T02:52:38.640Z,11.78
2023-05-15T02:55:05.383Z,11.80
2023-05-15T02:57:31.672Z,11.82
2023-05-15T02:59:57.992Z,11.83
2023-05-15T03:02:24.423Z,11.84
2023-05-15T03:04:51.116Z,11.85
2023-05-15T03:07:17.429Z,11.87
2023-05-15T03:09:43.710Z,11.87
2023-05-15T03:12:10.004Z,11.89
2023-05-15T03:14:36.354Z,11.90
2023-05-15T03:17:02.804Z,11.91
2023-05-15T03:19:29.191Z,11.91
2023-05-15T03:21:55.551Z,11.92
2023-05-15T03:24:21.926Z,11.92
2023-05-15T03:26:48.236Z,11.92
2023-05-15T03:29:14.505Z,11.93
2023-05-15T03:31:40.892Z,11.94
2023-05-15T03:34:07.317Z,11.95
2023-05-15T03:36:33.650Z,11.97
2023-05-15T03:38:59.953Z,11.98
2023-05-15T03:41:26.216Z,11.99
2023-05-15T03:43:52.488Z,12.00
2023-05-15T03:46:18.805Z,12.00
2023-05-15T03:48:45.192Z,12.02
2023-05-15T03:51:11.500Z,12.04
2023-05-15T03:53:38.062Z,12.04
2023-05-15T03:56:04.397Z,12.05
2023-05-15T03:58:30.617Z,12.06
2023-05-15T04:00:57.313Z,12.07
2023-05-15T04:03:23.699Z,12.07
2023-05-15T04:05:50.046Z,12.06
2023-05-15T04:08:16.355Z,12.05
2023-05-15T04:10:42.627Z,12.06
2023-05-15T04:13:08.921Z,12.06
2023-05-15T04:15:35.301Z,12.07
2023-05-15T04:18:01.663Z,12.08
2023-05-15T04:20:27.896Z,12.11
2023-05-15T04:22:54.286Z,12.13
2023-05-15T04:25:20.747Z,12.12
2023-05-15T04:27:47.102Z,12.11
2023-05-15T04:30:13.459Z,12.13
2023-05-15T04:32:40.208Z,12.15
2023-05-15T04:35:07.143Z,12.17
2023-05-15T04:37:33.400Z,12.18
2023-05-15T04:39:59.686Z,12.21
2023-05-15T04:42:26.086Z,12.23
2023-05-15T04:44:52.883Z,12.27
2023-05-15T04:47:19.176Z,12.30
2023-05-15T04:49:45.475Z,12.34
2023-05-15T04:52:11.788Z,12.37
2023-05-15T04:54:38.213Z,12.41
2023-05-15T04:57:04.625Z,12.44
2023-05-15T04:59:31.002Z,12.50
2023-05-15T05:01:57.332Z,12.58
2023-05-15T05:04:23.737Z,12.68
2023-05-15T05:06:50.191Z,12.79
2023-05-15T05:09:17.909Z,12.89
2023-05-15T05:11:44.181Z,12.99
2023-05-15T05:14:10.909Z,13.08
2023-05-15T05:16:37.473Z,13.13
2023-05-15T05:19:03.931Z,13.18
2023-05-15T05:21:30.519Z,13.20
2023-05-15T05:23:56.841Z,13.24
2023-05-15T05:26:23.230Z,13.29
2023-05-15T05:28:49.518Z,13.34
2023-05-15T05:31:15.841Z,13.43
2023-05-15T05:33:42.179Z,13.50
2023-05-15T05:36:08.695Z,13.58
2023-05-15T05:38:35.520Z,13.61
2023-05-15T05:41:02.010Z,13.62
2023-05-15T05:43:28.326Z,13.66
2023-05-15T05:45:54.593Z,13.71
2023-05-15T05:48:20.953Z,13.74
2023-05-15T05:50:47.255Z,13.75
2023-05-15T05:53:13.608Z,13.76
2023-05-15T05:55:40.188Z,13.78
2023-05-15T05:58:11.828Z,13.80
2023-05-15T06:00:44.651Z,13.83
2023-05-15T06:03:11.293Z,13.86
2023-05-15T06:05:37.593Z,13.90
2023-05-15T06:08:04.065Z,13.96
2023-05-15T06:10:30.319Z,14.06
2023-05-15T06:12:56.627Z,14.18
2023-05-15T06:15:23.118Z,14.31
2023-05-15T06:17:49.680Z,14.44
2023-05-15T06:20:16.044Z,14.56
2023-05-15T06:22:42.288Z,14.65
2023-05-15T06:25:08.707Z,14.77
2023-05-15T06:27:35.076Z,14.89
2023-05-15T06:30:01.351Z,14.98
2023-05-15T06:32:27.716Z,15.05
2023-05-15T06:34:54.099Z,15.11
2023-05-15T06:37:20.352Z,15.18
2023-05-15T06:39:46.635Z,15.31
2023-05-15T06:42:12.945Z,15.39
2023-05-15T06:44:40.758Z,15.45
2023-05-15T06:47:07.136Z,15.52
2023-05-15T06:49:33.489Z,15.61
2023-05-15T06:51:59.736Z,15.69
2023-05-15T06:54:25.991Z,15.74
2023-05-15T06:56:52.437Z,15.76
2023-05-15T06:59:18.766Z,15.78
2023-05-15T07:01:45.060Z,15.75
2023-05-15T07:04:14.275Z,15.73
2023-05-15T07:06:40.581Z,15.74
2023-05-15T07:09:06.825Z,15.76
2023-05-15T07:11:33.123Z,15.77
2023-05-15T07:13:59.411Z,15.73
2023-05-15T07:16:25.707Z,15.67
2023-05-15T07:18:52.264Z,15.61
2023-05-15T07:21:18.763Z,15.56
2023-05-15T07:23:45.090Z,15.54
2023-05-15T07:26:16.983Z,15.57
2023-05-15T07:28:46.685Z,15.65
2023-05-15T07:31:13.025Z,15.72
2023-05-15T07:33:39.315Z,15.79
2023-05-15T07:36:06.496Z,15.83
2023-05-15T07:38:32.850Z,15.87
2023-05-15T07:40:59.101Z,15.89
2023-05-15T07:43:25.361Z,15.91
2023-05-15T07:45:51.734Z,15.94
2023-05-15T07:48:18.936Z,15.98
2023-05-15T07:50:45.906Z,16.00
2023-05-15T07:53:15.411Z,16.00
2023-05-15T07:55:42.200Z,16.02
2023-05-15T07:58:08.678Z,16.07
2023-05-15T08:00:35.181Z,16.07
2023-05-15T08:03:01.689Z,16.03
2023-05-15T08:05:28.358Z,16.06
2023-05-15T08:07:55.596Z,16.05
2023-05-15T08:10:21.965Z,16.07
2023-05-15T08:12:48.743Z,16.15
2023-05-15T08:15:15.427Z,16.22
2023-05-15T08:17:41.989Z,16.24
2023-05-15T08:20:08.970Z,16.20
2023-05-15T08:22:35.398Z,16.07
2023-05-15T08:25:03.389Z,15.93
2023-05-15T08:27:32.747Z,15.80
2023-05-15T08:29:59.383Z,15.71
2023-05-15T08:36:52.527Z,15.41
2023-05-15T08:43:05.926Z,15.20
2023-05-15T08:45:34.933Z,15.12
2023-05-15T08:46:09.868Z,15.28
2023-05-15T08:48:04.934Z,15.12
2023-05-15T08:50:31.495Z,15.12
2023-05-15T08:52:57.942Z,15.18
2023-05-15T08:55:24.797Z,15.30
2023-05-15T08:57:51.351Z,15.41
2023-05-15T09:00:18.326Z,15.60
2023-05-15T09:02:44.777Z,15.88
2023-05-15T09:05:11.237Z,16.17
2023-05-15T09:07:38.084Z,16.35
2023-05-15T09:10:04.927Z,16.45
2023-05-15T09:12:33.513Z,16.55
2023-05-15T09:15:13.571Z,16.58
2023-05-15T09:17:40.031Z,16.51
2023-05-15T09:20:06.807Z,16.50
2023-05-15T09:22:34.030Z,16.58
2023-05-15T09:25:00.446Z,16.64
2023-05-15T09:27:26.840Z,16.66
2023-05-15T09:29:53.255Z,16.65
2023-05-15T09:32:19.767Z,16.61
2023-05-15T09:34:48.126Z,16.57
2023-05-15T09:37:32.589Z,16.58
2023-05-15T09:40:09.570Z,16.61
2023-05-15T09:42:36.285Z,16.72
2023-05-15T09:55:53.550Z,17.48
2023-05-15T09:58:20.060Z,17.64
2023-05-15T10:00:48.424Z,17.78
2023-05-15T10:03:19.053Z,17.75
2023-05-15T10:05:45.619Z,17.69
2023-05-15T10:08:11.997Z,17.60
2023-05-15T10:10:38.358Z,17.50
2023-05-15T10:13:06.358Z,17.48
2023-05-15T10:15:33.330Z,17.49
2023-05-15T10:17:59.675Z,17.52
2023-05-15T10:20:26.204Z,17.56
2023-05-15T10:22:54.260Z,17.60
2023-05-15T10:25:32.530Z,17.62
2023-05-15T10:27:59.088Z,17.60
2023-05-15T10:30:26.127Z,17.57
2023-05-15T10:32:53.187Z,17.57
2023-05-15T10:35:20.730Z,17.51
2023-05-15T10:37:47.802Z,17.44
2023-05-15T10:40:15.082Z,17.38
2023-05-15T10:42:42.114Z,17.36
2023-05-15T10:45:09.151Z,17.39
2023-05-15T10:47:36.534Z,17.34
2023-05-15T10:50:04.416Z,17.26
2023-05-15T10:52:31.762Z,17.16
2023-05-15T10:54:58.361Z,17.04
2023-05-15T10:57:24.739Z,16.88
2023-05-15T10:59:51.320Z,16.75
2023-05-15T11:02:29.263Z,16.67
2023-05-15T11:08:16.429Z,16.37
2023-05-15T11:10:42.826Z,16.26
2023-05-15T11:13:09.211Z,16.21
2023-05-15T11:15:42.579Z,16.22
2023-05-15T11:18:09.117Z,16.34
2023-05-15T11:20:39.704Z,16.52
2023-05-15T11:23:06.220Z,16.58
2023-05-15T11:25:34.198Z,16.67
2023-05-15T11:28:02.348Z,16.86
2023-05-15T11:30:36.086Z,17.22
2023-05-15T11:33:06.866Z,17.81
2023-05-15T11:35:36.478Z,18.67
2023-05-15T11:38:04.122Z,19.22
2023-05-15T11:40:31.778Z,19.87
2023-05-15T11:42:58.748Z,20.43
2023-05-15T11:45:25.117Z,20.73
2023-05-15T11:47:51.467Z,20.80
2023-05-15T11:50:21.474Z,20.95
2023-05-15T11:52:48.612Z,20.98
2023-05-15T11:55:15.610Z,20.75
2023-05-15T11:57:41.942Z,20.30
2023-05-15T12:00:08.610Z,19.85
2023-05-15T12:02:35.984Z,19.40
2023-05-15T12:05:02.553Z,18.91
2023-05-15T12:07:29.004Z,18.54
2023-05-15T12:09:55.426Z,18.31
2023-05-15T12:12:21.815Z,18.18
2023-05-15T12:14:48.162Z,18.15
2023-05-15T12:17:14.458Z,18.17
2023-05-15T12:19:41.753Z,18.20
2023-05-15T12:22:08.286Z,18.47
2023-05-15T12:24:36.976Z,19.04
2023-05-15T12:31:25.857Z,19.64
2023-05-15T12:40:21.667Z,19.07
2023-05-15T12:42:19.190Z,18.64
2023-05-15T12:44:45.721Z,18.35
2023-05-15T12:47:15.030Z,18.08
2023-05-15T12:49:41.737Z,17.88
2023-05-15T12:52:14.407Z,17.73
2023-05-15T12:54:40.669Z,17.57
2023-05-15T12:57:10.620Z,17.45
2023-05-15T12:59:38.119Z,17.43
2023-05-15T13:02:05.479Z,17.48
2023-05-15T13:04:33.034Z,17.62
2023-05-15T13:06:59.398Z,17.87
2023-05-15T13:09:25.851Z,18.15
2023-05-15T13:11:54.459Z,18.48
2023-05-15T13:14:21.088Z,18.86
2023-05-15T13:16:47.373Z,19.40
2023-05-15T13:19:13.910Z,20.34
2023-05-15T13:21:43.450Z,20.73
2023-05-15T13:24:09.931Z,20.30
2023-05-15T13:26:36.568Z,19.79
2023-05-15T13:29:02.832Z,19.50
2023-05-15T13:31:29.637Z,19.32
2023-05-15T13:33:56.216Z,19.14
2023-05-15T13:36:22.560Z,18.99
2023-05-15T13:38:48.890Z,18.87
2023-05-15T13:41:15.280Z,18.79
2023-05-15T13:43:41.525Z,18.87
2023-05-15T13:46:07.833Z,19.02
2023-05-15T13:48:34.199Z,19.17
2023-05-15T13:51:00.482Z,19.33
2023-05-15T13:53:26.777Z,19.38
2023-05-15T13:55:53.147Z,19.52
2023-05-15T13:58:19.447Z,19.66
2023-05-15T14:00:46.102Z,19.59
2023-05-15T14:03:15.256Z,19.27
2023-05-15T14:05:42.214Z,18.97
2023-05-15T14:08:08.550Z,18.72
2023-05-15T14:10:38.062Z,18.39
2023-05-15T14:23:50.023Z,17.71
2023-05-15T14:26:46.688Z,18.25
2023-05-15T14:29:58.963Z,18.60
2023-05-15T14:42:53.713Z,19.99
2023-05-15T14:45:53.866Z,20.42
2023-05-15T14:48:20.419Z,20.25
2023-05-15T14:50:46.815Z,20.10
2023-05-15T14:53:13.233Z,19.94
2023-05-15T14:55:39.657Z,19.81
2023-05-15T14:58:05.985Z,19.84
2023-05-15T15:00:32.286Z,19.96
2023-05-15T15:02:58.796Z,20.07
2023-05-15T15:05:25.172Z,20.11
2023-05-15T15:07:57.800Z,20.94
2023-05-15T15:10:24.316Z,21.85
2023-05-15T15:12:51.015Z,21.94
2023-05-15T15:15:18.021Z,21.73
2023-05-15T15:17:44.330Z,21.38
2023-05-15T15:20:10.822Z,21.18
2023-05-15T15:22:37.444Z,21.89
2023-05-15T15:25:03.944Z,23.29
2023-05-15T15:27:33.593Z,25.75
2023-05-15T15:29:59.942Z,28.19
2023-05-15T15:32:26.367Z,28.86
2023-05-15T15:34:52.708Z,27.64
2023-05-15T15:37:19.118Z,26.94
2023-05-15T15:39:45.379Z,26.95
2023-05-15T15:42:11.767Z,26.09
2023-05-15T15:44:38.076Z,24.88
2023-05-15T15:47:04.374Z,23.79
2023-05-15T15:49:30.691Z,22.72
2023-05-15T15:51:57.204Z,21.88
2023-05-15T15:54:23.551Z,21.34
2023-05-15T15:56:50.886Z,20.76
2023-05-15T15:59:17.247Z,20.18
2023-05-15T16:01:43.749Z,19.72
2023-05-15T16:04:10.226Z,19.37
2023-05-15T16:06:36.781Z,19.18
2023-05-15T16:09:03.368Z,19.00
2023-05-15T16:11:29.714Z,18.73
2023-05-15T16:13:56.101Z,18.42
2023-05-15T16:16:22.703Z,18.13
2023-05-15T16:18:49.358Z,17.93
2023-05-15T16:21:15.631Z,18.26
2023-05-15T16:23:41.978Z,18.58
2023-05-15T16:26:08.874Z,18.69
2023-05-15T16:28:35.257Z,18.70
2023-05-15T16:31:02.033Z,18.54
2023-05-15T16:33:29.301Z,18.26
2023-05-15T16:35:55.843Z,17.96
2023-05-15T16:38:22.304Z,17.75
2023-05-15T16:40:49.699Z,17.62
2023-05-15T16:43:16.020Z,17.60
2023-05-15T16:45:42.731Z,17.66
2023-05-15T16:48:09.218Z,17.76
2023-05-15T16:50:35.913Z,17.78
2023-05-15T16:53:02.790Z,17.73
2023-05-15T16:55:29.898Z,17.61
2023-05-15T16:57:56.236Z,17.43
2023-05-15T17:00:22.668Z,17.37
2023-05-15T17:02:49.435Z,17.54
2023-05-15T17:05:15.779Z,17.57
2023-05-15T17:07:42.819Z,17.53
2023-05-15T17:10:10.055Z,17.48
2023-05-15T17:12:36.712Z,17.40
2023-05-15T17:15:03.454Z,17.32
2023-05-15T17:17:29.912Z,17.26
2023-05-15T17:19:56.363Z,17.22
2023-05-15T17:22:23.251Z,17.15
2023-05-15T17:24:51.914Z,16.98
2023-05-15T17:27:19.015Z,16.83
2023-05-15T17:29:45.923Z,16.65
2023-05-15T17:32:12.697Z,16.51
2023-05-15T17:34:39.215Z,16.41
2023-05-15T17:37:05.573Z,16.33
2023-05-15T17:39:31.847Z,16.29
2023-05-15T17:41:58.115Z,16.24
2023-05-15T17:44:24.469Z,16.21
2023-05-15T17:46:50.892Z,16.18
2023-05-15T17:49:17.176Z,16.10
2023-05-15T17:51:43.593Z,15.98
2023-05-15T17:54:09.930Z,15.87
2023-05-15T17:56:36.236Z,15.74
2023-05-15T17:59:02.679Z,15.61
2023-05-15T18:01:29.334Z,15.49
2023-05-15T18:03:55.683Z,15.39
2023-05-15T18:06:22.175Z,15.30
2023-05-15T18:08:48.558Z,15.19
2023-05-15T18:11:22.545Z,15.07
2023-05-15T18:13:49.505Z,14.96
2023-05-15T18:16:15.895Z,14.85
2023-05-15T18:18:42.431Z,14.75
2023-05-15T18:21:08.924Z,14.65
2023-05-15T18:23:35.312Z,14.54
2023-05-15T18:26:01.644Z,14.44
2023-05-15T18:28:29.554Z,14.38
2023-05-15T18:30:57.036Z,14.34
2023-05-15T18:33:23.361Z,14.32
2023-05-15T18:35:49.693Z,14.29
2023-05-15T18:38:15.980Z,14.26
2023-05-15T18:40:45.172Z,14.22
2023-05-15T18:43:11.541Z,14.18
2023-05-15T18:45:38.014Z,14.15
2023-05-15T18:48:04.713Z,14.11
2023-05-15T18:50:31.128Z,14.09
2023-05-15T18:52:57.441Z,14.06
2023-05-15T18:55:24.001Z,14.04
2023-05-15T18:57:50.375Z,14.02
2023-05-15T19:00:26.622Z,13.99
2023-05-15T19:03:03.277Z,13.97
2023-05-15T19:05:29.636Z,13.93
2023-05-15T19:07:55.953Z,13.90
2023-05-15T19:10:22.311Z,13.88
2023-05-15T19:12:49.075Z,13.86
2023-05-15T19:15:15.460Z,13.84
2023-05-15T19:17:41.784Z,13.82
2023-05-15T19:20:08.342Z,13.80
2023-05-15T19:22:34.796Z,13.79
2023-05-15T19:25:01.159Z,13.76
2023-05-15T19:27:27.534Z,13.74
2023-05-15T19:29:53.814Z,13.70
2023-05-15T19:32:20.298Z,13.67
2023-05-15T19:34:46.696Z,13.63
2023-05-15T19:37:13.053Z,13.60
2023-05-15T19:39:39.336Z,13.54
2023-05-15T19:42:05.824Z,13.48
2023-05-15T19:44:32.209Z,13.41
2023-05-15T19:46:58.709Z,13.38
2023-05-15T19:49:25.099Z,13.37
2023-05-15T19:51:51.456Z,13.36
2023-05-15T19:54:17.822Z,13.37
2023-05-15T19:56:44.133Z,13.36
2023-05-15T19:59:11.728Z,13.34
2023-05-15T20:01:38.199Z,13.32
2023-05-15T20:04:04.622Z,13.31
2023-05-15T20:06:31.015Z,13.32
2023-05-15T20:08:57.305Z,13.33
2023-05-15T20:11:23.683Z,13.31
2023-05-15T20:13:50.224Z,13.30
2023-05-15T20:16:18.879Z,13.28
2023-05-15T20:18:45.655Z,13.26
2023-05-15T20:21:11.991Z,13.24
2023-05-15T20:23:38.281Z,13.21
2023-05-15T20:26:04.595Z,13.19
2023-05-15T20:28:31.012Z,13.18
2023-05-15T20:30:57.341Z,13.14
2023-05-15T20:33:24.016Z,13.11
2023-05-15T20:35:50.309Z,13.07
2023-05-15T20:38:16.874Z,13.04
2023-05-15T20:40:43.225Z,12.98
2023-05-15T20:43:09.561Z,12.92
2023-05-15T20:45:36.029Z,12.85
2023-05-15T20:48:04.999Z,12.79
2023-05-15T20:50:31.443Z,12.71
2023-05-15T20:52:57.756Z,12.64
2023-05-15T20:55:25.712Z,12.57
2023-05-15T20:57:52.103Z,12.51
2023-05-15T21:00:18.588Z,12.45
2023-05-15T21:02:45.474Z,12.39
2023-05-15T21:05:12.170Z,12.33
2023-05-15T21:07:38.598Z,12.29
2023-05-15T21:10:05.574Z,12.23
2023-05-15T21:12:31.853Z,12.18
2023-05-15T21:14:58.255Z,12.13
2023-05-15T21:17:24.590Z,12.09
2023-05-15T21:19:50.925Z,12.05
2023-05-15T21:22:17.249Z,12.01
2023-05-15T21:24:43.760Z,11.98
2023-05-15T21:27:10.016Z,11.94
2023-05-15T21:29:36.348Z,11.90
2023-05-15T21:32:04.699Z,11.86
2023-05-15T21:34:31.012Z,11.82
2023-05-15T21:36:57.293Z,11.78
2023-05-15T21:39:23.537Z,11.74
2023-05-15T21:41:49.978Z,11.71
2023-05-15T21:44:16.425Z,11.68
2023-05-15T21:46:42.713Z,11.64
2023-05-15T21:49:09.278Z,11.61
2023-05-15T21:51:35.593Z,11.55
2023-05-15T21:54:01.870Z,11.49
2023-05-15T21:56:28.375Z,11.45
2023-05-15T21:58:56.125Z,11.42
2023-05-15T22:01:23.523Z,11.39
2023-05-15T22:03:49.936Z,11.35
2023-05-15T22:06:16.304Z,11.31
2023-05-15T22:08:42.543Z,11.27
2023-05-15T22:11:08.807Z,11.24
2023-05-15T22:13:35.162Z,11.20
2023-05-15T22:16:01.802Z,11.17
2023-05-15T22:18:28.133Z,11.13
2023-05-15T22:20:54.496Z,11.11
2023-05-15T22:23:20.755Z,11.11
2023-05-15T22:25:46.976Z,11.11
2023-05-15T22:28:13.271Z,11.09
2023-05-15T22:30:39.548Z,11.07
2023-05-15T22:33:05.830Z,11.05
2023-05-15T22:35:32.153Z,11.04
2023-05-15T22:37:58.388Z,11.03
2023-05-15T22:40:24.768Z,11.02
2023-05-15T22:42:51.327Z,10.98
2023-05-15T22:45:18.689Z,10.95
2023-05-15T22:47:45.640Z,10.94
2023-05-15T22:50:12.052Z,10.91
2023-05-15T22:52:38.351Z,10.89
2023-05-15T22:55:04.940Z,10.88
2023-05-15T22:57:31.390Z,10.85
2023-05-15T22:59:57.699Z,10.84
2023-05-15T23:02:24.073Z,10.84
2023-05-15T23:04:50.410Z,10.82
2023-05-15T23:07:16.624Z,10.79
2023-05-15T23:09:43.251Z,10.78
2023-05-15T23:12:09.535Z,10.78
2023-05-15T23:14:35.843Z,10.77
2023-05-15T23:17:02.835Z,10.75
2023-05-15T23:19:29.091Z,10.74
2023-05-15T23:21:55.358Z,10.73
2023-05-15T23:24:21.665Z,10.72
2023-05-15T23:26:47.909Z,10.71
2023-05-15T23:29:14.161Z,10.71
2023-05-15T23:31:40.517Z,10.70
2023-05-15T23:34:06.860Z,10.70
2023-05-15T23:36:33.121Z,10.68
2023-05-15T23:38:59.344Z,10.68
2023-05-15T23:41:25.557Z,10.66
2023-05-15T23:43:51.808Z,10.65
2023-05-15T23:46:18.216Z,10.63
2023-05-15T23:48:44.601Z,10.60
2023-05-15T23:51:10.823Z,10.58
2023-05-15T23:53:37.222Z,10.56
2023-05-15T23:56:03.900Z,10.53
2023-05-15T23:58:30.169Z,10.51
